sensor_id;sensor_type;location;lat;lon;timestamp;P1;durP1;ratioP1;P2;durP2;ratioP2
50988;SDS011;37008;52.210;21.112;2022-07-21T00:01:06;8.35;;;5.80;;
50988;SDS011;37008;52.210;21.112;2022-07-21T00:03:31;8.95;;;6.55;;
50988;SDS011;37008;52.210;21.112;2022-07-21T00:05:57;9.98;;;6.45;;
50988;SDS011;37008;52.210;21.112;2022-07-21T00:08:23;11.55;;;5.97;;
50988;SDS011;37008;52.210;21.112;2022-07-21T00:10:48;10.77;;;6.63;;
50988;SDS011;37008;52.210;21.112;2022-07-21T00:13:14;8.50;;;5.97;;
50988;SDS011;37008;52.210;21.112;2022-07-21T00:15:40;12.07;;;5.97;;
50988;SDS011;37008;52.210;21.112;2022-07-21T00:18:06;10.85;;;5.75;;
50988;SDS011;37008;52.210;21.112;2022-07-21T00:20:31;9.10;;;5.95;;
50988;SDS011;37008;52.210;21.112;2022-07-21T00:22:57;7.95;;;5.78;;
50988;SDS011;37008;52.210;21.112;2022-07-21T00:25:23;10.45;;;6.05;;
50988;SDS011;37008;52.210;21.112;2022-07-21T00:27:50;10.80;;;6.85;;
50988;SDS011;37008;52.210;21.112;2022-07-21T00:30:15;7.50;;;5.75;;
50988;SDS011;37008;52.210;21.112;2022-07-21T00:32:41;10.27;;;6.70;;
50988;SDS011;37008;52.210;21.112;2022-07-21T00:35:08;11.32;;;6.47;;
50988;SDS011;37008;52.210;21.112;2022-07-21T00:37:35;10.18;;;6.07;;
50988;SDS011;37008;52.210;21.112;2022-07-21T00:40:02;7.45;;;5.55;;
50988;SDS011;37008;52.210;21.112;2022-07-21T00:42:30;9.82;;;5.78;;
50988;SDS011;37008;52.210;21.112;2022-07-21T00:44:57;7.45;;;5.63;;
50988;SDS011;37008;52.210;21.112;2022-07-21T00:47:25;10.27;;;5.90;;
50988;SDS011;37008;52.210;21.112;2022-07-21T00:49:52;7.57;;;6.40;;
50988;SDS011;37008;52.210;21.112;2022-07-21T00:52:17;9.43;;;6.10;;
50988;SDS011;37008;52.210;21.112;2022-07-21T00:54:43;11.05;;;6.25;;
50988;SDS011;37008;52.210;21.112;2022-07-21T00:57:09;8.30;;;6.22;;
50988;SDS011;37008;52.210;21.112;2022-07-21T00:59:36;10.13;;;6.07;;
50988;SDS011;37008;52.210;21.112;2022-07-21T01:02:02;9.27;;;6.57;;
50988;SDS011;37008;52.210;21.112;2022-07-21T01:04:29;7.65;;;6.15;;
50988;SDS011;37008;52.210;21.112;2022-07-21T01:06:55;8.93;;;5.63;;
50988;SDS011;37008;52.210;21.112;2022-07-21T01:09:22;9.18;;;5.65;;
50988;SDS011;37008;52.210;21.112;2022-07-21T01:11:48;8.82;;;6.80;;
50988;SDS011;37008;52.210;21.112;2022-07-21T01:14:14;7.38;;;6.05;;
50988;SDS011;37008;52.210;21.112;2022-07-21T01:16:41;7.35;;;6.40;;
50988;SDS011;37008;52.210;21.112;2022-07-21T01:19:06;12.18;;;6.82;;
50988;SDS011;37008;52.210;21.112;2022-07-21T01:21:33;10.23;;;6.43;;
50988;SDS011;37008;52.210;21.112;2022-07-21T01:24:01;8.60;;;6.35;;
50988;SDS011;37008;52.210;21.112;2022-07-21T01:26:27;10.38;;;5.82;;
50988;SDS011;37008;52.210;21.112;2022-07-21T01:28:53;8.88;;;6.30;;
50988;SDS011;37008;52.210;21.112;2022-07-21T01:31:19;7.25;;;6.45;;
50988;SDS011;37008;52.210;21.112;2022-07-21T01:33:45;7.57;;;6.53;;
50988;SDS011;37008;52.210;21.112;2022-07-21T01:36:11;8.52;;;6.47;;
50988;SDS011;37008;52.210;21.112;2022-07-21T01:38:37;10.18;;;6.43;;
50988;SDS011;37008;52.210;21.112;2022-07-21T01:41:21;9.45;;;6.22;;
50988;SDS011;37008;52.210;21.112;2022-07-21T01:44:00;9.57;;;7.03;;
50988;SDS011;37008;52.210;21.112;2022-07-21T01:46:31;9.15;;;6.30;;
50988;SDS011;37008;52.210;21.112;2022-07-21T01:48:58;9.38;;;6.85;;
50988;SDS011;37008;52.210;21.112;2022-07-21T01:51:24;9.73;;;7.38;;
50988;SDS011;37008;52.210;21.112;2022-07-21T01:53:50;8.93;;;6.82;;
50988;SDS011;37008;52.210;21.112;2022-07-21T01:56:18;8.75;;;7.57;;
50988;SDS011;37008;52.210;21.112;2022-07-21T01:58:45;8.32;;;6.95;;
50988;SDS011;37008;52.210;21.112;2022-07-21T02:01:11;8.23;;;6.43;;
50988;SDS011;37008;52.210;21.112;2022-07-21T02:03:36;11.65;;;7.63;;
50988;SDS011;37008;52.210;21.112;2022-07-21T02:06:03;8.05;;;6.30;;
50988;SDS011;37008;52.210;21.112;2022-07-21T02:08:30;9.25;;;7.25;;
50988;SDS011;37008;52.210;21.112;2022-07-21T02:10:56;9.20;;;7.53;;
50988;SDS011;37008;52.210;21.112;2022-07-21T02:13:22;10.60;;;6.80;;
50988;SDS011;37008;52.210;21.112;2022-07-21T02:15:47;11.52;;;7.03;;
50988;SDS011;37008;52.210;21.112;2022-07-21T02:18:13;7.85;;;6.95;;
50988;SDS011;37008;52.210;21.112;2022-07-21T02:20:38;7.93;;;7.03;;
50988;SDS011;37008;52.210;21.112;2022-07-21T02:23:04;11.07;;;6.72;;
50988;SDS011;37008;52.210;21.112;2022-07-21T02:25:30;11.05;;;7.07;;
50988;SDS011;37008;52.210;21.112;2022-07-21T02:27:55;9.90;;;6.40;;
50988;SDS011;37008;52.210;21.112;2022-07-21T02:30:21;12.20;;;6.93;;
50988;SDS011;37008;52.210;21.112;2022-07-21T02:32:47;10.82;;;7.50;;
50988;SDS011;37008;52.210;21.112;2022-07-21T02:35:12;13.32;;;7.60;;
50988;SDS011;37008;52.210;21.112;2022-07-21T02:37:38;7.28;;;6.43;;
50988;SDS011;37008;52.210;21.112;2022-07-21T02:40:05;8.90;;;6.97;;
50988;SDS011;37008;52.210;21.112;2022-07-21T02:42:31;7.03;;;6.32;;
50988;SDS011;37008;52.210;21.112;2022-07-21T02:44:57;7.57;;;6.22;;
50988;SDS011;37008;52.210;21.112;2022-07-21T02:47:22;8.77;;;6.55;;
50988;SDS011;37008;52.210;21.112;2022-07-21T02:49:48;9.32;;;6.55;;
50988;SDS011;37008;52.210;21.112;2022-07-21T02:52:13;10.90;;;6.85;;
50988;SDS011;37008;52.210;21.112;2022-07-21T02:54:39;8.73;;;7.20;;
50988;SDS011;37008;52.210;21.112;2022-07-21T02:57:05;9.15;;;7.22;;
50988;SDS011;37008;52.210;21.112;2022-07-21T02:59:30;8.23;;;6.65;;
50988;SDS011;37008;52.210;21.112;2022-07-21T03:01:56;11.00;;;6.93;;
50988;SDS011;37008;52.210;21.112;2022-07-21T03:04:22;8.43;;;7.28;;
50988;SDS011;37008;52.210;21.112;2022-07-21T03:06:48;8.98;;;7.20;;
50988;SDS011;37008;52.210;21.112;2022-07-21T03:09:13;9.60;;;7.68;;
50988;SDS011;37008;52.210;21.112;2022-07-21T03:11:39;9.20;;;7.18;;
50988;SDS011;37008;52.210;21.112;2022-07-21T03:14:05;8.60;;;7.25;;
50988;SDS011;37008;52.210;21.112;2022-07-21T03:16:30;8.65;;;6.93;;
50988;SDS011;37008;52.210;21.112;2022-07-21T03:18:56;11.38;;;8.15;;
50988;SDS011;37008;52.210;21.112;2022-07-21T03:21:22;9.38;;;7.40;;
50988;SDS011;37008;52.210;21.112;2022-07-21T03:23:47;8.65;;;6.70;;
50988;SDS011;37008;52.210;21.112;2022-07-21T03:26:14;8.65;;;6.85;;
50988;SDS011;37008;52.210;21.112;2022-07-21T03:28:41;8.07;;;7.18;;
50988;SDS011;37008;52.210;21.112;2022-07-21T03:31:08;12.55;;;7.20;;
50988;SDS011;37008;52.210;21.112;2022-07-21T03:33:34;12.15;;;7.38;;
50988;SDS011;37008;52.210;21.112;2022-07-21T03:35:59;9.45;;;7.00;;
50988;SDS011;37008;52.210;21.112;2022-07-21T03:38:26;8.02;;;6.80;;
50988;SDS011;37008;52.210;21.112;2022-07-21T03:40:52;9.13;;;7.32;;
50988;SDS011;37008;52.210;21.112;2022-07-21T03:43:18;7.78;;;6.72;;
50988;SDS011;37008;52.210;21.112;2022-07-21T03:45:44;10.52;;;7.22;;
50988;SDS011;37008;52.210;21.112;2022-07-21T03:48:10;11.30;;;6.93;;
50988;SDS011;37008;52.210;21.112;2022-07-21T03:50:38;9.27;;;6.95;;
50988;SDS011;37008;52.210;21.112;2022-07-21T03:53:06;8.45;;;6.18;;
50988;SDS011;37008;52.210;21.112;2022-07-21T03:55:33;9.07;;;6.47;;
50988;SDS011;37008;52.210;21.112;2022-07-21T03:58:01;7.57;;;6.00;;
50988;SDS011;37008;52.210;21.112;2022-07-21T04:00:30;9.75;;;5.72;;
50988;SDS011;37008;52.210;21.112;2022-07-21T04:02:56;8.13;;;6.82;;
50988;SDS011;37008;52.210;21.112;2022-07-21T04:05:22;8.10;;;6.35;;
50988;SDS011;37008;52.210;21.112;2022-07-21T04:07:48;9.43;;;6.50;;
50988;SDS011;37008;52.210;21.112;2022-07-21T04:10:18;9.65;;;7.88;;
50988;SDS011;37008;52.210;21.112;2022-07-21T04:12:45;9.93;;;7.25;;
50988;SDS011;37008;52.210;21.112;2022-07-21T04:15:12;12.43;;;8.27;;
50988;SDS011;37008;52.210;21.112;2022-07-21T04:17:38;8.25;;;6.80;;
50988;SDS011;37008;52.210;21.112;2022-07-21T04:20:04;12.15;;;7.18;;
50988;SDS011;37008;52.210;21.112;2022-07-21T04:22:31;10.73;;;7.75;;
50988;SDS011;37008;52.210;21.112;2022-07-21T04:24:57;11.63;;;7.70;;
50988;SDS011;37008;52.210;21.112;2022-07-21T04:27:24;11.50;;;7.80;;
50988;SDS011;37008;52.210;21.112;2022-07-21T04:29:50;11.45;;;7.82;;
50988;SDS011;37008;52.210;21.112;2022-07-21T04:32:16;10.35;;;8.00;;
50988;SDS011;37008;52.210;21.112;2022-07-21T04:34:42;10.75;;;7.32;;
50988;SDS011;37008;52.210;21.112;2022-07-21T04:37:07;9.95;;;7.72;;
50988;SDS011;37008;52.210;21.112;2022-07-21T04:39:33;9.43;;;7.70;;
50988;SDS011;37008;52.210;21.112;2022-07-21T04:41:58;13.38;;;8.07;;
50988;SDS011;37008;52.210;21.112;2022-07-21T04:44:24;13.23;;;8.63;;
50988;SDS011;37008;52.210;21.112;2022-07-21T04:46:50;14.48;;;8.68;;
50988;SDS011;37008;52.210;21.112;2022-07-21T04:49:15;16.48;;;7.57;;
50988;SDS011;37008;52.210;21.112;2022-07-21T04:51:41;11.32;;;7.50;;
50988;SDS011;37008;52.210;21.112;2022-07-21T04:54:07;13.75;;;7.80;;
50988;SDS011;37008;52.210;21.112;2022-07-21T04:56:33;12.82;;;7.32;;
50988;SDS011;37008;52.210;21.112;2022-07-21T04:58:59;12.45;;;7.50;;
50988;SDS011;37008;52.210;21.112;2022-07-21T05:01:28;14.18;;;7.82;;
50988;SDS011;37008;52.210;21.112;2022-07-21T05:03:54;11.18;;;7.45;;
50988;SDS011;37008;52.210;21.112;2022-07-21T05:06:20;10.57;;;7.40;;
50988;SDS011;37008;52.210;21.112;2022-07-21T05:08:45;11.65;;;6.88;;
50988;SDS011;37008;52.210;21.112;2022-07-21T05:11:12;16.48;;;7.03;;
50988;SDS011;37008;52.210;21.112;2022-07-21T05:13:38;14.27;;;6.50;;
50988;SDS011;37008;52.210;21.112;2022-07-21T05:16:04;8.88;;;5.40;;
50988;SDS011;37008;52.210;21.112;2022-07-21T05:18:30;9.15;;;5.13;;
50988;SDS011;37008;52.210;21.112;2022-07-21T05:20:55;11.60;;;5.30;;
50988;SDS011;37008;52.210;21.112;2022-07-21T05:23:21;11.05;;;5.40;;
50988;SDS011;37008;52.210;21.112;2022-07-21T05:25:47;13.52;;;5.38;;
50988;SDS011;37008;52.210;21.112;2022-07-21T05:28:12;11.60;;;5.05;;
50988;SDS011;37008;52.210;21.112;2022-07-21T05:30:38;10.10;;;4.70;;
50988;SDS011;37008;52.210;21.112;2022-07-21T05:33:04;15.38;;;4.13;;
50988;SDS011;37008;52.210;21.112;2022-07-21T05:35:29;8.35;;;3.85;;
50988;SDS011;37008;52.210;21.112;2022-07-21T05:37:55;9.98;;;4.38;;
50988;SDS011;37008;52.210;21.112;2022-07-21T05:40:21;11.00;;;3.83;;
50988;SDS011;37008;52.210;21.112;2022-07-21T05:42:47;13.98;;;3.63;;
50988;SDS011;37008;52.210;21.112;2022-07-21T05:45:13;7.80;;;3.65;;
50988;SDS011;37008;52.210;21.112;2022-07-21T05:47:38;10.48;;;3.60;;
50988;SDS011;37008;52.210;21.112;2022-07-21T05:50:05;13.80;;;3.78;;
50988;SDS011;37008;52.210;21.112;2022-07-21T05:52:31;6.50;;;3.17;;
50988;SDS011;37008;52.210;21.112;2022-07-21T05:54:56;8.05;;;3.42;;
50988;SDS011;37008;52.210;21.112;2022-07-21T05:57:22;17.65;;;4.40;;
50988;SDS011;37008;52.210;21.112;2022-07-21T05:59:48;9.77;;;3.13;;
50988;SDS011;37008;52.210;21.112;2022-07-21T06:02:13;14.45;;;4.13;;
50988;SDS011;37008;52.210;21.112;2022-07-21T06:04:39;9.55;;;4.03;;
50988;SDS011;37008;52.210;21.112;2022-07-21T06:07:05;15.68;;;3.40;;
50988;SDS011;37008;52.210;21.112;2022-07-21T06:09:30;11.13;;;3.13;;
50988;SDS011;37008;52.210;21.112;2022-07-21T06:11:56;7.13;;;3.42;;
50988;SDS011;37008;52.210;21.112;2022-07-21T06:14:22;8.52;;;3.00;;
50988;SDS011;37008;52.210;21.112;2022-07-21T06:16:47;4.60;;;3.20;;
50988;SDS011;37008;52.210;21.112;2022-07-21T06:19:14;12.30;;;3.13;;
50988;SDS011;37008;52.210;21.112;2022-07-21T06:21:39;9.35;;;3.25;;
50988;SDS011;37008;52.210;21.112;2022-07-21T06:24:06;6.35;;;2.70;;
50988;SDS011;37008;52.210;21.112;2022-07-21T06:26:32;5.78;;;2.63;;
50988;SDS011;37008;52.210;21.112;2022-07-21T06:28:58;9.52;;;2.58;;
50988;SDS011;37008;52.210;21.112;2022-07-21T06:31:24;8.50;;;2.70;;
50988;SDS011;37008;52.210;21.112;2022-07-21T06:33:49;8.60;;;2.60;;
50988;SDS011;37008;52.210;21.112;2022-07-21T06:36:15;6.32;;;2.60;;
50988;SDS011;37008;52.210;21.112;2022-07-21T06:38:41;8.27;;;2.47;;
50988;SDS011;37008;52.210;21.112;2022-07-21T06:41:06;6.30;;;2.47;;
50988;SDS011;37008;52.210;21.112;2022-07-21T06:43:33;5.82;;;2.45;;
50988;SDS011;37008;52.210;21.112;2022-07-21T06:45:59;8.45;;;2.40;;
50988;SDS011;37008;52.210;21.112;2022-07-21T06:48:25;6.03;;;2.70;;
50988;SDS011;37008;52.210;21.112;2022-07-21T06:50:51;9.48;;;2.50;;
50988;SDS011;37008;52.210;21.112;2022-07-21T06:53:17;6.50;;;2.38;;
50988;SDS011;37008;52.210;21.112;2022-07-21T06:55:43;4.65;;;2.00;;
50988;SDS011;37008;52.210;21.112;2022-07-21T06:58:12;3.78;;;1.95;;
50988;SDS011;37008;52.210;21.112;2022-07-21T07:00:39;6.85;;;1.95;;
50988;SDS011;37008;52.210;21.112;2022-07-21T07:03:05;6.72;;;2.42;;
50988;SDS011;37008;52.210;21.112;2022-07-21T07:05:31;9.50;;;2.08;;
50988;SDS011;37008;52.210;21.112;2022-07-21T07:07:56;4.90;;;2.10;;
50988;SDS011;37008;52.210;21.112;2022-07-21T07:10:22;6.78;;;2.38;;
50988;SDS011;37008;52.210;21.112;2022-07-21T07:12:48;3.20;;;2.28;;
50988;SDS011;37008;52.210;21.112;2022-07-21T07:15:13;7.38;;;2.55;;
50988;SDS011;37008;52.210;21.112;2022-07-21T07:17:39;7.95;;;2.50;;
50988;SDS011;37008;52.210;21.112;2022-07-21T07:20:05;3.50;;;1.85;;
50988;SDS011;37008;52.210;21.112;2022-07-21T07:22:32;4.10;;;2.13;;
50988;SDS011;37008;52.210;21.112;2022-07-21T07:24:58;7.25;;;2.00;;
50988;SDS011;37008;52.210;21.112;2022-07-21T07:27:24;5.85;;;1.80;;
50988;SDS011;37008;52.210;21.112;2022-07-21T07:29:49;6.80;;;1.85;;
50988;SDS011;37008;52.210;21.112;2022-07-21T07:32:15;6.72;;;1.73;;
50988;SDS011;37008;52.210;21.112;2022-07-21T07:34:41;4.38;;;1.92;;
50988;SDS011;37008;52.210;21.112;2022-07-21T07:37:07;3.97;;;1.90;;
50988;SDS011;37008;52.210;21.112;2022-07-21T07:39:32;4.57;;;1.90;;
50988;SDS011;37008;52.210;21.112;2022-07-21T07:41:58;4.30;;;1.75;;
50988;SDS011;37008;52.210;21.112;2022-07-21T07:44:24;5.30;;;2.20;;
50988;SDS011;37008;52.210;21.112;2022-07-21T07:46:50;5.13;;;2.00;;
50988;SDS011;37008;52.210;21.112;2022-07-21T07:49:15;3.45;;;1.80;;
50988;SDS011;37008;52.210;21.112;2022-07-21T07:51:41;5.85;;;1.80;;
50988;SDS011;37008;52.210;21.112;2022-07-21T07:54:08;9.82;;;2.10;;
50988;SDS011;37008;52.210;21.112;2022-07-21T07:56:33;4.88;;;1.90;;
50988;SDS011;37008;52.210;21.112;2022-07-21T07:58:59;5.72;;;2.20;;
50988;SDS011;37008;52.210;21.112;2022-07-21T08:01:25;5.00;;;1.90;;
50988;SDS011;37008;52.210;21.112;2022-07-21T08:03:50;4.88;;;2.08;;
50988;SDS011;37008;52.210;21.112;2022-07-21T08:06:16;4.88;;;2.33;;
50988;SDS011;37008;52.210;21.112;2022-07-21T08:08:42;3.55;;;2.00;;
50988;SDS011;37008;52.210;21.112;2022-07-21T08:11:07;4.25;;;1.70;;
50988;SDS011;37008;52.210;21.112;2022-07-21T08:13:34;5.78;;;2.00;;
50988;SDS011;37008;52.210;21.112;2022-07-21T08:16:00;6.03;;;2.10;;
50988;SDS011;37008;52.210;21.112;2022-07-21T08:18:26;6.78;;;2.33;;
50988;SDS011;37008;52.210;21.112;2022-07-21T08:20:52;4.45;;;1.77;;
50988;SDS011;37008;52.210;21.112;2022-07-21T08:23:18;6.60;;;2.25;;
50988;SDS011;37008;52.210;21.112;2022-07-21T08:25:43;3.85;;;1.98;;
50988;SDS011;37008;52.210;21.112;2022-07-21T08:28:09;4.15;;;1.75;;
50988;SDS011;37008;52.210;21.112;2022-07-21T08:30:35;6.13;;;2.20;;
50988;SDS011;37008;52.210;21.112;2022-07-21T08:33:01;6.93;;;2.10;;
50988;SDS011;37008;52.210;21.112;2022-07-21T08:35:28;5.88;;;2.20;;
50988;SDS011;37008;52.210;21.112;2022-07-21T08:37:55;6.43;;;2.22;;
50988;SDS011;37008;52.210;21.112;2022-07-21T08:40:24;6.85;;;2.42;;
50988;SDS011;37008;52.210;21.112;2022-07-21T08:42:51;3.30;;;1.88;;
50988;SDS011;37008;52.210;21.112;2022-07-21T08:45:17;5.50;;;1.75;;
50988;SDS011;37008;52.210;21.112;2022-07-21T08:47:43;7.60;;;1.90;;
50988;SDS011;37008;52.210;21.112;2022-07-21T08:50:09;3.95;;;1.77;;
50988;SDS011;37008;52.210;21.112;2022-07-21T08:52:35;5.90;;;2.13;;
50988;SDS011;37008;52.210;21.112;2022-07-21T08:55:01;2.78;;;1.83;;
50988;SDS011;37008;52.210;21.112;2022-07-21T08:57:27;4.70;;;1.90;;
50988;SDS011;37008;52.210;21.112;2022-07-21T08:59:53;4.72;;;1.75;;
50988;SDS011;37008;52.210;21.112;2022-07-21T09:02:29;6.63;;;2.13;;
50988;SDS011;37008;52.210;21.112;2022-07-21T09:04:57;8.93;;;2.10;;
50988;SDS011;37008;52.210;21.112;2022-07-21T09:07:22;5.95;;;1.80;;
50988;SDS011;37008;52.210;21.112;2022-07-21T09:09:59;3.22;;;1.80;;
50988;SDS011;37008;52.210;21.112;2022-07-21T09:12:26;4.47;;;1.80;;
50988;SDS011;37008;52.210;21.112;2022-07-21T09:14:58;6.00;;;2.10;;
50988;SDS011;37008;52.210;21.112;2022-07-21T09:17:41;7.22;;;2.17;;
50988;SDS011;37008;52.210;21.112;2022-07-21T09:20:20;5.57;;;1.77;;
50988;SDS011;37008;52.210;21.112;2022-07-21T09:25:32;2.97;;;1.75;;
50988;SDS011;37008;52.210;21.112;2022-07-21T09:28:10;3.85;;;1.42;;
50988;SDS011;37008;52.210;21.112;2022-07-21T09:33:34;5.60;;;1.52;;
50988;SDS011;37008;52.210;21.112;2022-07-21T09:38:44;6.20;;;1.73;;
50988;SDS011;37008;52.210;21.112;2022-07-21T09:41:16;6.10;;;1.55;;
50988;SDS011;37008;52.210;21.112;2022-07-21T09:43:47;3.63;;;1.67;;
50988;SDS011;37008;52.210;21.112;2022-07-21T09:46:20;4.55;;;1.60;;
50988;SDS011;37008;52.210;21.112;2022-07-21T09:48:48;10.80;;;2.13;;
50988;SDS011;37008;52.210;21.112;2022-07-21T09:56:28;4.97;;;1.50;;
50988;SDS011;37008;52.210;21.112;2022-07-21T09:58:58;4.32;;;1.70;;
50988;SDS011;37008;52.210;21.112;2022-07-21T10:01:24;5.57;;;1.83;;
50988;SDS011;37008;52.210;21.112;2022-07-21T10:03:52;4.65;;;1.75;;
50988;SDS011;37008;52.210;21.112;2022-07-21T10:06:19;4.07;;;1.75;;
50988;SDS011;37008;52.210;21.112;2022-07-21T10:08:48;4.10;;;1.60;;
50988;SDS011;37008;52.210;21.112;2022-07-21T10:11:15;7.95;;;1.50;;
50988;SDS011;37008;52.210;21.112;2022-07-21T10:13:41;7.10;;;1.73;;
50988;SDS011;37008;52.210;21.112;2022-07-21T10:16:08;3.90;;;1.45;;
50988;SDS011;37008;52.210;21.112;2022-07-21T10:18:38;4.30;;;1.58;;
50988;SDS011;37008;52.210;21.112;2022-07-21T10:24:15;3.95;;;1.67;;
50988;SDS011;37008;52.210;21.112;2022-07-21T10:32:16;2.78;;;1.65;;
50988;SDS011;37008;52.210;21.112;2022-07-21T10:37:54;3.00;;;1.50;;
50988;SDS011;37008;52.210;21.112;2022-07-21T10:48:02;6.70;;;2.10;;
50988;SDS011;37008;52.210;21.112;2022-07-21T10:50:47;6.13;;;1.85;;
50988;SDS011;37008;52.210;21.112;2022-07-21T10:53:16;3.28;;;1.60;;
50988;SDS011;37008;52.210;21.112;2022-07-21T10:55:50;3.75;;;1.80;;
50988;SDS011;37008;52.210;21.112;2022-07-21T11:00:56;4.05;;;1.65;;
50988;SDS011;37008;52.210;21.112;2022-07-21T11:03:31;6.17;;;1.70;;
50988;SDS011;37008;52.210;21.112;2022-07-21T11:08:47;5.97;;;1.75;;
50988;SDS011;37008;52.210;21.112;2022-07-21T11:21:51;4.80;;;2.00;;
50988;SDS011;37008;52.210;21.112;2022-07-21T11:24:18;3.33;;;1.63;;
50988;SDS011;37008;52.210;21.112;2022-07-21T11:26:48;4.60;;;1.70;;
50988;SDS011;37008;52.210;21.112;2022-07-21T11:29:22;3.92;;;1.65;;
50988;SDS011;37008;52.210;21.112;2022-07-21T11:31:48;4.00;;;1.85;;
50988;SDS011;37008;52.210;21.112;2022-07-21T11:34:14;8.27;;;1.88;;
50988;SDS011;37008;52.210;21.112;2022-07-21T11:36:40;5.03;;;1.67;;
50988;SDS011;37008;52.210;21.112;2022-07-21T11:39:08;3.47;;;1.88;;
50988;SDS011;37008;52.210;21.112;2022-07-21T11:41:36;2.92;;;1.60;;
50988;SDS011;37008;52.210;21.112;2022-07-21T11:44:05;5.25;;;2.15;;
50988;SDS011;37008;52.210;21.112;2022-07-21T11:46:45;6.38;;;1.88;;
50988;SDS011;37008;52.210;21.112;2022-07-21T11:49:12;3.05;;;1.63;;
50988;SDS011;37008;52.210;21.112;2022-07-21T11:51:45;5.40;;;1.60;;
50988;SDS011;37008;52.210;21.112;2022-07-21T11:54:21;3.78;;;1.88;;
50988;SDS011;37008;52.210;21.112;2022-07-21T11:56:58;3.90;;;2.08;;
50988;SDS011;37008;52.210;21.112;2022-07-21T11:59:25;4.63;;;1.98;;
50988;SDS011;37008;52.210;21.112;2022-07-21T12:04:31;6.10;;;1.48;;
50988;SDS011;37008;52.210;21.112;2022-07-21T12:07:02;6.95;;;1.75;;
50988;SDS011;37008;52.210;21.112;2022-07-21T12:09:30;3.42;;;1.73;;
50988;SDS011;37008;52.210;21.112;2022-07-21T12:11:56;5.25;;;1.70;;
50988;SDS011;37008;52.210;21.112;2022-07-21T12:14:44;5.65;;;1.90;;
50988;SDS011;37008;52.210;21.112;2022-07-21T12:17:13;2.92;;;1.75;;
50988;SDS011;37008;52.210;21.112;2022-07-21T12:19:40;6.30;;;1.75;;
50988;SDS011;37008;52.210;21.112;2022-07-21T12:22:05;4.57;;;1.80;;
50988;SDS011;37008;52.210;21.112;2022-07-21T12:27:19;3.58;;;1.70;;
50988;SDS011;37008;52.210;21.112;2022-07-21T12:29:45;3.10;;;1.70;;
50988;SDS011;37008;52.210;21.112;2022-07-21T12:32:11;6.35;;;2.00;;
50988;SDS011;37008;52.210;21.112;2022-07-21T12:34:47;5.03;;;2.05;;
50988;SDS011;37008;52.210;21.112;2022-07-21T12:37:15;5.75;;;1.80;;
50988;SDS011;37008;52.210;21.112;2022-07-21T12:39:40;2.80;;;1.60;;
50988;SDS011;37008;52.210;21.112;2022-07-21T12:42:28;4.28;;;1.98;;
50988;SDS011;37008;52.210;21.112;2022-07-21T12:45:00;4.93;;;2.17;;
50988;SDS011;37008;52.210;21.112;2022-07-21T12:47:36;5.93;;;1.90;;
50988;SDS011;37008;52.210;21.112;2022-07-21T12:50:03;4.25;;;1.85;;
50988;SDS011;37008;52.210;21.112;2022-07-21T12:52:31;5.30;;;2.10;;
50988;SDS011;37008;52.210;21.112;2022-07-21T12:54:57;6.15;;;1.88;;
50988;SDS011;37008;52.210;21.112;2022-07-21T12:57:27;2.45;;;1.70;;
50988;SDS011;37008;52.210;21.112;2022-07-21T12:59:54;5.93;;;1.67;;
50988;SDS011;37008;52.210;21.112;2022-07-21T13:02:21;6.35;;;1.95;;
50988;SDS011;37008;52.210;21.112;2022-07-21T13:04:47;6.53;;;2.10;;
50988;SDS011;37008;52.210;21.112;2022-07-21T13:07:13;5.45;;;1.90;;
50988;SDS011;37008;52.210;21.112;2022-07-21T13:09:38;6.60;;;1.90;;
50988;SDS011;37008;52.210;21.112;2022-07-21T13:12:04;6.18;;;2.28;;
50988;SDS011;37008;52.210;21.112;2022-07-21T13:14:30;7.05;;;2.10;;
50988;SDS011;37008;52.210;21.112;2022-07-21T13:16:57;8.60;;;2.40;;
50988;SDS011;37008;52.210;21.112;2022-07-21T13:19:25;16.92;;;2.28;;
50988;SDS011;37008;52.210;21.112;2022-07-21T13:21:51;6.97;;;1.83;;
50988;SDS011;37008;52.210;21.112;2022-07-21T13:24:17;7.90;;;3.03;;
50988;SDS011;37008;52.210;21.112;2022-07-21T13:26:43;11.93;;;2.15;;
50988;SDS011;37008;52.210;21.112;2022-07-21T13:29:09;7.80;;;2.17;;
50988;SDS011;37008;52.210;21.112;2022-07-21T13:31:35;8.43;;;2.90;;
50988;SDS011;37008;52.210;21.112;2022-07-21T13:34:04;9.65;;;2.63;;
50988;SDS011;37008;52.210;21.112;2022-07-21T13:36:32;10.00;;;2.22;;
50988;SDS011;37008;52.210;21.112;2022-07-21T13:39:03;4.38;;;2.05;;
50988;SDS011;37008;52.210;21.112;2022-07-21T13:41:30;6.80;;;2.35;;
50988;SDS011;37008;52.210;21.112;2022-07-21T13:43:57;6.18;;;2.20;;
50988;SDS011;37008;52.210;21.112;2022-07-21T13:46:23;4.53;;;2.25;;
50988;SDS011;37008;52.210;21.112;2022-07-21T13:48:49;9.02;;;2.38;;
50988;SDS011;37008;52.210;21.112;2022-07-21T13:51:16;4.85;;;2.38;;
50988;SDS011;37008;52.210;21.112;2022-07-21T13:53:44;6.68;;;2.45;;
50988;SDS011;37008;52.210;21.112;2022-07-21T13:56:11;5.88;;;2.20;;
50988;SDS011;37008;52.210;21.112;2022-07-21T13:58:37;8.95;;;2.70;;
50988;SDS011;37008;52.210;21.112;2022-07-21T14:01:03;5.00;;;2.30;;
50988;SDS011;37008;52.210;21.112;2022-07-21T14:03:29;9.40;;;2.38;;
50988;SDS011;37008;52.210;21.112;2022-07-21T14:05:55;10.30;;;2.60;;
50988;SDS011;37008;52.210;21.112;2022-07-21T14:08:20;5.20;;;2.80;;
50988;SDS011;37008;52.210;21.112;2022-07-21T14:10:46;9.85;;;2.40;;
50988;SDS011;37008;52.210;21.112;2022-07-21T14:13:12;5.30;;;2.10;;
50988;SDS011;37008;52.210;21.112;2022-07-21T14:15:37;7.93;;;2.30;;
50988;SDS011;37008;52.210;21.112;2022-07-21T14:18:03;7.75;;;2.35;;
50988;SDS011;37008;52.210;21.112;2022-07-21T14:20:28;11.15;;;3.13;;
50988;SDS011;37008;52.210;21.112;2022-07-21T14:22:54;4.38;;;2.17;;
50988;SDS011;37008;52.210;21.112;2022-07-21T14:25:20;8.20;;;2.30;;
50988;SDS011;37008;52.210;21.112;2022-07-21T14:27:47;7.50;;;2.42;;
50988;SDS011;37008;52.210;21.112;2022-07-21T14:30:18;7.93;;;2.40;;
50988;SDS011;37008;52.210;21.112;2022-07-21T14:32:45;3.33;;;2.10;;
50988;SDS011;37008;52.210;21.112;2022-07-21T14:35:11;8.48;;;2.10;;
50988;SDS011;37008;52.210;21.112;2022-07-21T14:37:40;6.93;;;2.10;;
50988;SDS011;37008;52.210;21.112;2022-07-21T14:40:06;8.00;;;2.00;;
50988;SDS011;37008;52.210;21.112;2022-07-21T14:42:33;5.78;;;2.10;;
50988;SDS011;37008;52.210;21.112;2022-07-21T14:44:59;6.53;;;2.17;;
50988;SDS011;37008;52.210;21.112;2022-07-21T14:47:25;6.22;;;2.00;;
50988;SDS011;37008;52.210;21.112;2022-07-21T14:49:51;10.30;;;2.78;;
50988;SDS011;37008;52.210;21.112;2022-07-21T14:52:16;4.45;;;2.13;;
50988;SDS011;37008;52.210;21.112;2022-07-21T14:54:42;4.63;;;2.05;;
50988;SDS011;37008;52.210;21.112;2022-07-21T14:57:08;5.38;;;2.20;;
50988;SDS011;37008;52.210;21.112;2022-07-21T14:59:33;6.75;;;2.42;;
50988;SDS011;37008;52.210;21.112;2022-07-21T15:01:59;6.95;;;2.80;;
50988;SDS011;37008;52.210;21.112;2022-07-21T15:04:25;7.65;;;3.10;;
50988;SDS011;37008;52.210;21.112;2022-07-21T15:06:50;6.13;;;2.50;;
50988;SDS011;37008;52.210;21.112;2022-07-21T15:09:16;8.10;;;2.55;;
50988;SDS011;37008;52.210;21.112;2022-07-21T15:11:42;5.57;;;2.60;;
50988;SDS011;37008;52.210;21.112;2022-07-21T15:14:07;4.38;;;2.10;;
50988;SDS011;37008;52.210;21.112;2022-07-21T15:16:33;5.05;;;2.17;;
50988;SDS011;37008;52.210;21.112;2022-07-21T15:18:58;6.30;;;1.90;;
50988;SDS011;37008;52.210;21.112;2022-07-21T15:21:24;7.00;;;2.63;;
50988;SDS011;37008;52.210;21.112;2022-07-21T15:23:50;7.28;;;1.90;;